Time;durP1;ratioP1;P1;durP2;ratioP2;P2;SDS_P1;SDS_P2;PMS_P1;PMS_P2;Temp;Humidity;BMP_temperature;BMP_pressure;BME280_temperature;BME280_humidity;BME280_pressure;Samples;Min_cycle;Max_cycle;Signal;HPM_P1;HPM_P2
2022/04/07 00:02:13;;;;;;;;;0.75;0.75;;;;;;;;5068693;28;47098;-79
2022/04/07 00:04:38;;;;;;;;;1.50;0.00;;;;;;;;5077399;28;45373;-79
2022/04/07 00:07:03;;;;;;;;;0.00;0.00;;;;;;;;5060822;28;45304;-79
2022/04/07 00:09:29;;;;;;;;;3.25;1.00;;;;;;;;5072696;27;45382;-80
2022/04/07 00:11:54;;;;;;;;;0.00;0.00;;;;;;;;5070134;28;45582;-78
2022/04/07 00:14:19;;;;;;;;;2.00;1.00;;;;;;;;5071871;28;45564;-79
2022/04/07 00:16:44;;;;;;;;;2.75;1.00;;;;;;;;5063918;28;45385;-79
2022/04/07 00:19:10;;;;;;;;;3.00;1.00;;;;;;;;5076450;27;45408;-78
2022/04/07 00:21:46;;;;;;;;;3.00;1.75;;;;;;;;5076298;28;46550;-79
2022/04/07 00:24:12;;;;;;;;;1.50;1.50;;;;;;;;5075813;27;45289;-79
2022/04/07 00:26:37;;;;;;;;;3.75;2.25;;;;;;;;5072660;28;45504;-79
2022/04/07 00:29:03;;;;;;;;;3.00;3.00;;;;;;;;5066653;27;45448;-79
2022/04/07 00:31:28;;;;;;;;;2.25;1.00;;;;;;;;5075422;28;45459;-74
2022/04/07 00:33:53;;;;;;;;;1.25;1.25;;;;;;;;5074720;28;45387;-74
2022/04/07 00:36:18;;;;;;;;;2.50;2.00;;;;;;;;5076069;28;45425;-74
2022/04/07 00:38:44;;;;;;;;;1.00;1.00;;;;;;;;5072249;28;45464;-74
2022/04/07 00:41:09;;;;;;;;;0.25;0.25;;;;;;;;5075573;28;46299;-74
2022/04/07 00:43:36;;;;;;;;;1.25;1.25;;;;;;;;5075338;28;45390;-74
2022/04/07 00:46:02;;;;;;;;;2.00;2.00;;;;;;;;5076375;28;45367;-74
2022/04/07 00:48:27;;;;;;;;;3.00;2.00;;;;;;;;5077279;27;45579;-74
2022/04/07 00:50:53;;;;;;;;;2.00;0.00;;;;;;;;5076076;27;45990;-73
2022/04/07 00:53:19;;;;;;;;;2.75;0.75;;;;;;;;5076986;27;45453;-73
2022/04/07 00:55:45;;;;;;;;;1.00;1.00;;;;;;;;5076508;27;45430;-74
2022/04/07 00:58:10;;;;;;;;;0.00;0.00;;;;;;;;5074245;28;45602;-73
2022/04/07 01:00:35;;;;;;;;;1.25;1.00;;;;;;;;5075537;27;46142;-74
2022/04/07 01:03:00;;;;;;;;;2.00;1.00;;;;;;;;5073600;28;45401;-73
2022/04/07 01:05:26;;;;;;;;;2.00;1.00;;;;;;;;5070465;28;45529;-74
2022/04/07 01:07:51;;;;;;;;;2.00;2.00;;;;;;;;5064037;28;45623;-74
2022/04/07 01:10:19;;;;;;;;;2.00;2.00;;;;;;;;5075387;27;46193;-73
2022/04/07 01:12:44;;;;;;;;;2.25;2.00;;;;;;;;5064423;28;45708;-73
2022/04/07 01:15:09;;;;;;;;;2.75;1.75;;;;;;;;5070513;28;45312;-73
2022/04/07 01:17:34;;;;;;;;;1.00;0.00;;;;;;;;5075373;28;45674;-73
2022/04/07 01:20:03;;;;;;;;;3.25;1.75;;;;;;;;5075072;28;47074;-74
2022/04/07 01:22:28;;;;;;;;;2.00;2.00;;;;;;;;5075126;28;45574;-74
2022/04/07 01:24:54;;;;;;;;;2.00;1.00;;;;;;;;5074957;27;45419;-73
2022/04/07 01:27:19;;;;;;;;;2.00;1.00;;;;;;;;5073704;27;45544;-74
2022/04/07 01:29:45;;;;;;;;;2.00;2.00;;;;;;;;5074229;28;47216;-72
2022/04/07 01:32:17;;;;;;;;;4.00;1.00;;;;;;;;5071783;28;45400;-74
2022/04/07 01:34:43;;;;;;;;;2.00;1.00;;;;;;;;5062832;28;45393;-73
2022/04/07 01:37:09;;;;;;;;;0.00;0.00;;;;;;;;5075172;28;45457;-74
2022/04/07 01:39:35;;;;;;;;;3.00;2.00;;;;;;;;5075609;28;46085;-74
2022/04/07 01:42:00;;;;;;;;;2.50;2.00;;;;;;;;5069907;27;45588;-74
2022/04/07 01:44:27;;;;;;;;;2.00;0.75;;;;;;;;5069395;27;45525;-74
2022/04/07 01:46:53;;;;;;;;;2.75;2.00;;;;;;;;5063884;28;45435;-72
2022/04/07 01:49:20;;;;;;;;;3.50;1.00;;;;;;;;5074866;27;45382;-74
2022/04/07 01:51:46;;;;;;;;;0.75;0.50;;;;;;;;5071288;28;45499;-74
2022/04/07 01:54:13;;;;;;;;;2.75;1.50;;;;;;;;5074690;27;46001;-73
2022/04/07 01:56:39;;;;;;;;;1.00;1.00;;;;;;;;5074535;28;45491;-74
2022/04/07 01:59:05;;;;;;;;;1.00;1.00;;;;;;;;5064271;27;46279;-74
2022/04/07 02:01:30;;;;;;;;;2.00;1.00;;;;;;;;5073305;28;45461;-74
2022/04/07 02:03:55;;;;;;;;;1.25;1.25;;;;;;;;5075236;27;45284;-75
2022/04/07 02:06:21;;;;;;;;;2.50;0.50;;;;;;;;5075420;28;45284;-74
2022/04/07 02:08:46;;;;;;;;;3.00;2.00;;;;;;;;5074583;28;46262;-74
2022/04/07 02:11:12;;;;;;;;;2.00;1.25;;;;;;;;5074579;28;45270;-74
2022/04/07 02:13:41;;;;;;;;;2.00;1.00;;;;;;;;5067021;27;45454;-74
2022/04/07 02:16:07;;;;;;;;;2.00;2.00;;;;;;;;5074873;27;45475;-74
2022/04/07 02:18:32;;;;;;;;;3.00;1.00;;;;;;;;5075154;27;46358;-74
2022/04/07 02:20:57;;;;;;;;;3.75;1.00;;;;;;;;5073824;28;45474;-73
2022/04/07 02:23:22;;;;;;;;;1.00;0.00;;;;;;;;5070051;28;45479;-74
2022/04/07 02:25:48;;;;;;;;;3.50;2.00;;;;;;;;5058511;28;45359;-74
2022/04/07 02:28:13;;;;;;;;;1.50;1.00;;;;;;;;5073316;28;47297;-74
2022/04/07 02:30:38;;;;;;;;;2.00;1.75;;;;;;;;5074885;28;45384;-74
2022/04/07 02:33:03;;;;;;;;;2.50;2.50;;;;;;;;5074166;28;45607;-74
2022/04/07 02:35:28;;;;;;;;;4.00;3.00;;;;;;;;5074078;28;45706;-74
2022/04/07 02:37:54;;;;;;;;;1.00;1.00;;;;;;;;5075438;28;47236;-74
2022/04/07 02:40:19;;;;;;;;;2.00;1.00;;;;;;;;5077331;28;45557;-74
2022/04/07 02:42:44;;;;;;;;;5.00;2.50;;;;;;;;5078084;28;45358;-74
2022/04/07 02:45:09;;;;;;;;;1.00;1.00;;;;;;;;5077137;27;45638;-74
2022/04/07 02:47:38;;;;;;;;;2.75;1.00;;;;;;;;5076681;27;46053;-75
2022/04/07 02:50:04;;;;;;;;;5.00;3.75;;;;;;;;5077162;27;45407;-74
2022/04/07 02:52:29;;;;;;;;;1.75;1.75;;;;;;;;5077442;27;45433;-73
2022/04/07 02:54:54;;;;;;;;;1.25;1.25;;;;;;;;5077745;28;45540;-73
2022/04/07 02:57:23;;;;;;;;;3.25;3.25;;;;;;;;5064821;27;48857;-74
2022/04/07 02:59:48;;;;;;;;;1.25;1.00;;;;;;;;5073357;28;45417;-74
2022/04/07 03:02:13;;;;;;;;;3.25;2.00;;;;;;;;5074077;28;45580;-72
2022/04/07 03:04:39;;;;;;;;;4.00;3.00;;;;;;;;5064090;28;45429;-72
2022/04/07 03:07:04;;;;;;;;;2.50;2.50;;;;;;;;5076546;28;46309;-74
2022/04/07 03:09:29;;;;;;;;;3.00;2.25;;;;;;;;5077773;28;45235;-74
2022/04/07 03:11:54;;;;;;;;;2.75;2.50;;;;;;;;5076236;28;45503;-73
2022/04/07 03:14:20;;;;;;;;;2.00;2.00;;;;;;;;5069641;28;45398;-72
2022/04/07 03:16:48;;;;;;;;;1.00;1.00;;;;;;;;5077041;27;46187;-72
2022/04/07 03:19:15;;;;;;;;;2.25;2.00;;;;;;;;5075916;27;45816;-74
2022/04/07 03:21:40;;;;;;;;;2.00;2.00;;;;;;;;5062011;28;45262;-74
2022/04/07 03:24:06;;;;;;;;;0.00;0.00;;;;;;;;5075555;28;45260;-73
2022/04/07 03:26:31;;;;;;;;;2.75;2.75;;;;;;;;5076495;28;45354;-73
2022/04/07 03:28:56;;;;;;;;;3.00;2.00;;;;;;;;5076744;28;45521;-73
2022/04/07 03:31:21;;;;;;;;;1.25;1.25;;;;;;;;5077199;28;45524;-74
2022/04/07 03:33:46;;;;;;;;;1.75;1.75;;;;;;;;5077702;27;45416;-74
2022/04/07 03:36:12;;;;;;;;;3.75;1.00;;;;;;;;5076151;28;47352;-74
2022/04/07 03:38:38;;;;;;;;;2.00;2.00;;;;;;;;5070360;28;45535;-74
2022/04/07 03:41:03;;;;;;;;;2.00;1.00;;;;;;;;5065070;28;49087;-74
2022/04/07 03:43:28;;;;;;;;;2.50;2.50;;;;;;;;5061970;28;45686;-74
2022/04/07 03:45:54;;;;;;;;;2.00;2.00;;;;;;;;5075984;27;46236;-75
2022/04/07 03:48:20;;;;;;;;;1.25;1.25;;;;;;;;5075774;27;45339;-74
2022/04/07 03:50:45;;;;;;;;;2.25;2.25;;;;;;;;5076243;28;45578;-74
2022/04/07 03:53:10;;;;;;;;;4.50;4.50;;;;;;;;5076410;28;45485;-74
2022/04/07 03:55:35;;;;;;;;;2.00;2.00;;;;;;;;5075919;28;46184;-74
2022/04/07 03:58:00;;;;;;;;;6.25;2.00;;;;;;;;5076720;28;45361;-82
2022/04/07 04:00:26;;;;;;;;;3.50;3.50;;;;;;;;5076898;28;45345;-78
2022/04/07 04:02:51;;;;;;;;;2.00;1.00;;;;;;;;5067056;28;45545;-79
2022/04/07 04:05:17;;;;;;;;;2.50;2.00;;;;;;;;5068231;28;45398;-79
2022/04/07 04:07:42;;;;;;;;;3.25;3.25;;;;;;;;5076250;27;45448;-78
2022/04/07 04:10:08;;;;;;;;;2.25;1.00;;;;;;;;5075646;27;45684;-79
2022/04/07 04:12:33;;;;;;;;;1.50;1.50;;;;;;;;5071170;27;45556;-80
2022/04/07 04:14:58;;;;;;;;;4.25;3.25;;;;;;;;5073539;28;45298;-78
2022/04/07 04:17:24;;;;;;;;;2.00;0.75;;;;;;;;5075945;28;45378;-78
2022/04/07 04:19:50;;;;;;;;;5.00;3.00;;;;;;;;5076127;28;45476;-78
2022/04/07 04:22:15;;;;;;;;;4.50;4.00;;;;;;;;5063189;27;45730;-79
2022/04/07 04:24:40;;;;;;;;;3.00;3.00;;;;;;;;5092259;28;45539;-78
2022/04/07 04:27:05;;;;;;;;;1.50;1.50;;;;;;;;5077857;28;45421;-79
2022/04/07 04:29:31;;;;;;;;;3.25;2.25;;;;;;;;5066239;28;45819;-80
2022/04/07 04:31:56;;;;;;;;;3.75;2.00;;;;;;;;5075569;28;45373;-79
2022/04/07 04:34:21;;;;;;;;;4.25;3.00;;;;;;;;5075992;28;46290;-80
2022/04/07 04:36:46;;;;;;;;;2.75;1.25;;;;;;;;5075787;28;45294;-79
2022/04/07 04:39:11;;;;;;;;;2.75;2.00;;;;;;;;5075731;28;45335;-79
2022/04/07 04:41:37;;;;;;;;;1.50;1.00;;;;;;;;5068279;28;45438;-78
2022/04/07 04:44:02;;;;;;;;;2.00;2.00;;;;;;;;5063501;28;46240;-80
2022/04/07 04:46:27;;;;;;;;;3.25;3.25;;;;;;;;5060515;28;45413;-80
2022/04/07 04:48:53;;;;;;;;;3.25;2.00;;;;;;;;5074973;27;45416;-80
2022/04/07 04:51:18;;;;;;;;;3.00;3.00;;;;;;;;5075314;27;45263;-77
2022/04/07 04:53:43;;;;;;;;;2.75;2.75;;;;;;;;5074487;28;46384;-78
2022/04/07 04:56:08;;;;;;;;;3.50;2.00;;;;;;;;5074039;28;45454;-76
2022/04/07 04:58:34;;;;;;;;;8.50;3.25;;;;;;;;5074946;28;45489;-77
2022/04/07 05:00:59;;;;;;;;;1.75;1.75;;;;;;;;5058122;28;45371;-77
2022/04/07 05:03:24;;;;;;;;;3.00;2.50;;;;;;;;5060619;28;47185;-77
2022/04/07 05:05:49;;;;;;;;;5.50;2.00;;;;;;;;5070709;28;45453;-78
2022/04/07 05:08:15;;;;;;;;;4.25;1.50;;;;;;;;5074343;27;45475;-78
2022/04/07 05:10:40;;;;;;;;;3.00;2.00;;;;;;;;5074728;27;45418;-76
2022/04/07 05:13:05;;;;;;;;;3.00;2.00;;;;;;;;5067375;27;45494;-77
2022/04/07 05:15:30;;;;;;;;;2.00;2.00;;;;;;;;5077350;28;45433;-78
2022/04/07 05:17:56;;;;;;;;;2.75;1.00;;;;;;;;5076596;28;45499;-78
2022/04/07 05:20:23;;;;;;;;;1.50;0.00;;;;;;;;5072651;28;46029;-78
2022/04/07 05:22:49;;;;;;;;;2.00;1.75;;;;;;;;5071036;28;46340;-76
2022/04/07 05:25:14;;;;;;;;;2.00;2.00;;;;;;;;5072728;27;45308;-78
2022/04/07 05:27:40;;;;;;;;;6.50;5.00;;;;;;;;5074840;28;45382;-77
2022/04/07 05:30:07;;;;;;;;;2.75;2.75;;;;;;;;5073807;27;45411;-77
2022/04/07 05:32:32;;;;;;;;;6.75;5.75;;;;;;;;5073974;27;47149;-77
2022/04/07 05:34:57;;;;;;;;;12.25;9.00;;;;;;;;5073163;27;45359;-77
2022/04/07 05:37:24;;;;;;;;;10.00;8.75;;;;;;;;5074443;28;45384;-78
2022/04/07 05:39:51;;;;;;;;;4.75;4.25;;;;;;;;5058108;28;45344;-78
2022/04/07 05:42:16;;;;;;;;;5.25;5.25;;;;;;;;5073677;28;46375;-78
2022/04/07 05:44:41;;;;;;;;;11.00;8.50;;;;;;;;5073056;28;45503;-79
2022/04/07 05:47:08;;;;;;;;;8.00;6.00;;;;;;;;5073767;28;45337;-78
2022/04/07 05:49:33;;;;;;;;;6.25;4.50;;;;;;;;5073785;28;45572;-78
2022/04/07 05:52:01;;;;;;;;;8.50;7.50;;;;;;;;5074198;27;47041;-78
2022/04/07 05:54:26;;;;;;;;;6.75;5.25;;;;;;;;5058944;28;45496;-79
2022/04/07 05:56:52;;;;;;;;;3.75;3.25;;;;;;;;5062155;28;45274;-85
2022/04/07 05:59:17;;;;;;;;;3.75;3.75;;;;;;;;5067631;28;45462;-74
2022/04/07 06:01:42;;;;;;;;;3.00;3.00;;;;;;;;5074572;28;46323;-81
2022/04/07 06:04:07;;;;;;;;;2.50;1.50;;;;;;;;5056531;28;45436;-74
2022/04/07 06:06:32;;;;;;;;;1.75;1.75;;;;;;;;5058155;28;45343;-74
2022/04/07 06:08:58;;;;;;;;;1.00;1.00;;;;;;;;5070837;28;46544;-75
2022/04/07 06:11:23;;;;;;;;;1.00;1.00;;;;;;;;5072320;28;46030;-74
2022/04/07 06:13:48;;;;;;;;;2.00;0.00;;;;;;;;5066303;28;45488;-74
2022/04/07 06:16:14;;;;;;;;;1.00;1.00;;;;;;;;5076669;27;45320;-73
2022/04/07 06:18:39;;;;;;;;;3.50;1.75;;;;;;;;5060694;27;45587;-74
2022/04/07 06:21:04;;;;;;;;;2.50;0.75;;;;;;;;5073374;27;46159;-74
2022/04/07 06:23:31;;;;;;;;;2.00;2.00;;;;;;;;5069815;28;45449;-74
2022/04/07 06:25:57;;;;;;;;;1.00;1.00;;;;;;;;5074792;28;45411;-73
2022/04/07 06:28:22;;;;;;;;;1.25;1.25;;;;;;;;5061282;28;45338;-74
2022/04/07 06:30:48;;;;;;;;;2.00;2.00;;;;;;;;5075567;27;47007;-75
2022/04/07 06:33:13;;;;;;;;;3.00;2.00;;;;;;;;5072628;28;45481;-74
2022/04/07 06:35:38;;;;;;;;;3.25;2.00;;;;;;;;5076523;28;45355;-75
2022/04/07 06:38:04;;;;;;;;;2.25;1.00;;;;;;;;5076585;27;45444;-74
2022/04/07 06:40:29;;;;;;;;;2.00;2.00;;;;;;;;5075953;28;46592;-74
2022/04/07 06:42:58;;;;;;;;;1.50;1.25;;;;;;;;5074468;28;45370;-74
2022/04/07 06:45:28;;;;;;;;;2.00;1.00;;;;;;;;5076822;27;45347;-74
2022/04/07 06:47:53;;;;;;;;;2.25;1.00;;;;;;;;5075654;27;45519;-75
2022/04/07 06:50:19;;;;;;;;;2.25;2.25;;;;;;;;5075418;27;46238;-73
2022/04/07 06:52:45;;;;;;;;;1.00;1.00;;;;;;;;5074119;27;45508;-74
2022/04/07 06:55:11;;;;;;;;;2.50;2.00;;;;;;;;5069078;27;45495;-74
2022/04/07 06:57:48;;;;;;;;;1.00;1.00;;;;;;;;5063062;27;45326;-74
2022/04/07 07:00:15;;;;;;;;;2.75;2.75;;;;;;;;5072449;28;46317;-75
2022/04/07 07:02:40;;;;;;;;;3.25;1.00;;;;;;;;5066891;28;46865;-74
2022/04/07 07:05:05;;;;;;;;;1.50;1.50;;;;;;;;5075059;28;45617;-75
2022/04/07 07:07:31;;;;;;;;;1.75;1.75;;;;;;;;5063733;27;45400;-74
2022/04/07 07:09:56;;;;;;;;;3.75;3.00;;;;;;;;5074404;27;46050;-74
2022/04/07 07:12:21;;;;;;;;;1.75;0.00;;;;;;;;5076633;28;45477;-74
2022/04/07 07:14:47;;;;;;;;;0.75;0.75;;;;;;;;5075396;28;45276;-75
2022/04/07 07:17:13;;;;;;;;;3.00;1.25;;;;;;;;5074737;28;45383;-73
2022/04/07 07:19:38;;;;;;;;;2.00;1.00;;;;;;;;5065957;28;45340;-74
2022/04/07 07:22:03;;;;;;;;;0.75;0.75;;;;;;;;5075539;27;45476;-74
2022/04/07 07:24:28;;;;;;;;;3.00;3.00;;;;;;;;5076599;28;45430;-74
2022/04/07 07:26:54;;;;;;;;;1.25;0.25;;;;;;;;5066897;28;45346;-73
2022/04/07 07:29:19;;;;;;;;;1.00;0.50;;;;;;;;5066843;28;47432;-74
2022/04/07 07:31:44;;;;;;;;;0.25;0.25;;;;;;;;5074820;28;45657;-73
2022/04/07 07:34:09;;;;;;;;;1.00;1.00;;;;;;;;5076088;27;45756;-73
2022/04/07 07:36:35;;;;;;;;;2.00;1.00;;;;;;;;5060937;28;45335;-73
2022/04/07 07:39:01;;;;;;;;;0.00;0.00;;;;;;;;5072867;28;45978;-73
2022/04/07 07:41:26;;;;;;;;;2.00;1.00;;;;;;;;5074604;28;45516;-74
2022/04/07 07:43:51;;;;;;;;;0.00;0.00;;;;;;;;5074209;28;45450;-75
2022/04/07 07:46:16;;;;;;;;;0.00;0.00;;;;;;;;5075202;28;45496;-80
2022/04/07 07:48:42;;;;;;;;;0.00;0.00;;;;;;;;5060513;28;45510;-80
2022/04/07 07:51:07;;;;;;;;;0.75;0.75;;;;;;;;5074263;28;45225;-79
2022/04/07 07:53:32;;;;;;;;;0.00;0.00;;;;;;;;5075014;28;45440;-81
2022/04/07 07:55:58;;;;;;;;;1.75;1.00;;;;;;;;5074206;28;45570;-81
2022/04/07 07:58:24;;;;;;;;;1.00;1.00;;;;;;;;5074687;28;46959;-81
2022/04/07 08:00:49;;;;;;;;;1.25;0.75;;;;;;;;5064730;27;45453;-82
2022/04/07 08:03:15;;;;;;;;;1.00;0.00;;;;;;;;5072639;27;45255;-83
2022/04/07 08:05:40;;;;;;;;;0.00;0.00;;;;;;;;5067693;28;45611;-81
2022/04/07 08:08:06;;;;;;;;;1.75;0.50;;;;;;;;5070599;28;45377;-82
2022/04/07 08:10:31;;;;;;;;;0.00;0.00;;;;;;;;5075839;27;45339;-81
2022/04/07 08:12:57;;;;;;;;;2.75;0.00;;;;;;;;5075712;27;45335;-82
2022/04/07 08:15:24;;;;;;;;;0.00;0.00;;;;;;;;5076250;27;45404;-81
2022/04/07 08:17:49;;;;;;;;;0.00;0.00;;;;;;;;5075153;27;47349;-81
2022/04/07 08:20:15;;;;;;;;;0.00;0.00;;;;;;;;5070403;28;45448;-82
2022/04/07 08:22:40;;;;;;;;;1.50;0.25;;;;;;;;5075664;28;45459;-81
2022/04/07 08:25:05;;;;;;;;;1.00;1.00;;;;;;;;5075946;27;45389;-81
2022/04/07 08:27:31;;;;;;;;;0.75;0.75;;;;;;;;5076987;27;45361;-81
2022/04/07 08:29:56;;;;;;;;;2.00;1.25;;;;;;;;5075403;27;45475;-80
2022/04/07 08:32:21;;;;;;;;;0.00;0.00;;;;;;;;5072474;28;46425;-82
2022/04/07 08:34:46;;;;;;;;;1.00;1.00;;;;;;;;5065305;28;45457;-81
2022/04/07 08:37:12;;;;;;;;;0.25;0.25;;;;;;;;5075904;27;47113;-81
2022/04/07 08:39:37;;;;;;;;;1.00;1.00;;;;;;;;5071751;28;45536;-81
2022/04/07 08:42:04;;;;;;;;;0.00;0.00;;;;;;;;5065528;28;45485;-81
2022/04/07 08:44:31;;;;;;;;;1.25;0.00;;;;;;;;5067787;28;45525;-81
2022/04/07 08:46:57;;;;;;;;;1.25;0.00;;;;;;;;5074576;27;46420;-81
2022/04/07 08:49:23;;;;;;;;;0.00;0.00;;;;;;;;5074119;27;45425;-81
2022/04/07 08:51:50;;;;;;;;;0.00;0.00;;;;;;;;5073157;28;45308;-81
2022/04/07 08:54:15;;;;;;;;;2.00;1.00;;;;;;;;5063381;27;45481;-81
2022/04/07 08:56:40;;;;;;;;;1.25;1.00;;;;;;;;5069875;28;45898;-82
2022/04/07 08:59:06;;;;;;;;;1.25;0.00;;;;;;;;5074200;27;45460;-82
2022/04/07 09:01:31;;;;;;;;;1.00;0.00;;;;;;;;5075237;27;45442;-81
2022/04/07 09:03:56;;;;;;;;;0.00;0.00;;;;;;;;5074436;27;45338;-81
2022/04/07 09:06:23;;;;;;;;;1.00;0.00;;;;;;;;5070640;28;46098;-81
2022/04/07 09:08:49;;;;;;;;;0.00;0.00;;;;;;;;5070754;28;45413;-79
2022/04/07 09:11:17;;;;;;;;;1.00;0.00;;;;;;;;5071918;28;45495;-81
2022/04/07 09:13:44;;;;;;;;;0.25;0.00;;;;;;;;5062972;27;45557;-81
2022/04/07 09:16:12;;;;;;;;;0.00;0.00;;;;;;;;5064478;27;46115;-82
2022/04/07 09:18:38;;;;;;;;;0.25;0.00;;;;;;;;5075300;27;45471;-82
2022/04/07 09:21:04;;;;;;;;;1.00;0.00;;;;;;;;5074738;27;47474;-81
2022/04/07 09:23:39;;;;;;;;;0.00;0.00;;;;;;;;5075415;27;45363;-81
2022/04/07 09:26:05;;;;;;;;;0.00;0.00;;;;;;;;5073733;27;46260;-82
2022/04/07 09:28:31;;;;;;;;;0.00;0.00;;;;;;;;5073658;27;45301;-81
2022/04/07 09:30:57;;;;;;;;;0.25;0.00;;;;;;;;5074370;27;45362;-82
2022/04/07 09:33:23;;;;;;;;;1.00;0.50;;;;;;;;5061735;28;45379;-81
2022/04/07 09:36:01;;;;;;;;;0.00;0.00;;;;;;;;5068543;28;45423;-81
2022/04/07 09:38:27;;;;;;;;;1.00;0.00;;;;;;;;5073795;28;45403;-81
2022/04/07 09:40:52;;;;;;;;;0.00;0.00;;;;;;;;5070917;28;45495;-81
2022/04/07 09:43:17;;;;;;;;;0.00;0.00;;;;;;;;5074331;27;45397;-81
2022/04/07 09:45:45;;;;;;;;;1.25;0.00;;;;;;;;5075173;28;46582;-81
2022/04/07 09:48:17;;;;;;;;;1.75;0.00;;;;;;;;5078289;28;45149;-80
2022/04/07 09:50:42;;;;;;;;;2.00;1.00;;;;;;;;5076620;27;45248;-81
2022/04/07 09:53:09;;;;;;;;;0.00;0.00;;;;;;;;5068028;28;45339;-81
2022/04/07 09:55:34;;;;;;;;;0.00;0.00;;;;;;;;5073358;28;46485;-81
2022/04/07 09:58:01;;;;;;;;;0.00;0.00;;;;;;;;5076117;28;45471;-81
2022/04/07 10:00:26;;;;;;;;;1.25;0.00;;;;;;;;5078776;27;45398;-82
2022/04/07 10:02:53;;;;;;;;;0.00;0.00;;;;;;;;5075753;28;45485;-82
2022/04/07 10:05:19;;;;;;;;;0.75;0.75;;;;;;;;5071646;27;47415;-82
2022/04/07 10:07:44;;;;;;;;;0.00;0.00;;;;;;;;5063124;28;45357;-82
2022/04/07 10:10:11;;;;;;;;;0.00;0.00;;;;;;;;5075728;27;45445;-82
2022/04/07 10:12:36;;;;;;;;;1.25;0.00;;;;;;;;5079919;27;45368;-82
2022/04/07 10:15:03;;;;;;;;;0.50;0.50;;;;;;;;5066972;27;45352;-80
2022/04/07 10:17:29;;;;;;;;;0.00;0.00;;;;;;;;5064006;28;45403;-82
2022/04/07 10:20:00;;;;;;;;;1.25;0.00;;;;;;;;5064026;28;45312;-79
2022/04/07 10:22:43;;;;;;;;;0.00;0.00;;;;;;;;5066133;27;45288;-78
2022/04/07 10:25:09;;;;;;;;;0.00;0.00;;;;;;;;5056018;28;47005;-77
2022/04/07 10:27:38;;;;;;;;;0.00;0.00;;;;;;;;5066434;27;45434;-78
2022/04/07 10:30:07;;;;;;;;;2.75;1.00;;;;;;;;5071680;27;45700;-78
2022/04/07 10:32:56;;;;;;;;;0.00;0.00;;;;;;;;5071887;27;45429;-76
2022/04/07 10:35:27;;;;;;;;;0.50;0.50;;;;;;;;5066181;27;45467;-78
2022/04/07 10:37:52;;;;;;;;;0.75;0.75;;;;;;;;5059785;28;45370;-78
2022/04/07 10:40:35;;;;;;;;;2.00;1.00;;;;;;;;5071105;27;45456;-78
2022/04/07 10:43:05;;;;;;;;;0.75;0.00;;;;;;;;5067634;28;45476;-75
2022/04/07 10:45:31;;;;;;;;;0.00;0.00;;;;;;;;5064734;28;46043;-76
2022/04/07 10:48:15;;;;;;;;;0.00;0.00;;;;;;;;5068388;28;45540;-76
2022/04/07 10:50:44;;;;;;;;;0.00;0.00;;;;;;;;5071571;27;45506;-78
2022/04/07 10:53:17;;;;;;;;;2.00;0.00;;;;;;;;5071131;27;45503;-77
2022/04/07 10:56:02;;;;;;;;;0.50;0.00;;;;;;;;5070868;27;45395;-78
2022/04/07 10:58:56;;;;;;;;;0.00;0.00;;;;;;;;5058463;28;45529;-77
2022/04/07 11:01:33;;;;;;;;;1.00;0.00;;;;;;;;5050653;28;45743;-76
2022/04/07 11:04:22;;;;;;;;;0.00;0.00;;;;;;;;5075111;27;45436;-76
2022/04/07 11:07:09;;;;;;;;;2.00;1.25;;;;;;;;5071289;28;47108;-76
2022/04/07 11:09:53;;;;;;;;;0.00;0.00;;;;;;;;5073825;28;45457;-77
2022/04/07 11:12:18;;;;;;;;;0.00;0.00;;;;;;;;5070893;28;45660;-75
2022/04/07 11:14:47;;;;;;;;;0.00;0.00;;;;;;;;5068940;28;45534;-75
2022/04/07 11:17:22;;;;;;;;;0.00;0.00;;;;;;;;5067260;28;46995;-75
2022/04/07 11:20:03;;;;;;;;;0.00;0.00;;;;;;;;5073963;27;45361;-76
2022/04/07 11:22:44;;;;;;;;;0.00;0.00;;;;;;;;5060156;28;45252;-76
2022/04/07 11:25:09;;;;;;;;;0.75;0.00;;;;;;;;5074906;27;45452;-76
2022/04/07 11:27:36;;;;;;;;;2.25;2.00;;;;;;;;5074457;27;46542;-75
2022/04/07 11:30:02;;;;;;;;;1.50;0.25;;;;;;;;5074640;28;45503;-75
2022/04/07 11:32:27;;;;;;;;;1.75;1.75;;;;;;;;5068691;28;45467;-76
2022/04/07 11:34:53;;;;;;;;;1.25;0.75;;;;;;;;5072429;27;45664;-76
2022/04/07 11:37:19;;;;;;;;;0.00;0.00;;;;;;;;5063133;28;46104;-75
2022/04/07 11:39:46;;;;;;;;;0.00;0.00;;;;;;;;5070980;28;45521;-76
2022/04/07 11:42:13;;;;;;;;;0.00;0.00;;;;;;;;5073148;27;45491;-76
2022/04/07 11:44:38;;;;;;;;;0.00;0.00;;;;;;;;5067591;27;45624;-77
2022/04/07 11:47:19;;;;;;;;;0.00;0.00;;;;;;;;5063429;28;45383;-76
2022/04/07 11:49:44;;;;;;;;;1.00;0.50;;;;;;;;5067713;28;45514;-76
2022/04/07 11:52:10;;;;;;;;;1.50;1.00;;;;;;;;5067611;27;45589;-77
2022/04/07 11:54:36;;;;;;;;;0.00;0.00;;;;;;;;5060731;27;45488;-77
2022/04/07 11:57:01;;;;;;;;;0.75;0.00;;;;;;;;5071801;28;46302;-75
2022/04/07 11:59:34;;;;;;;;;1.75;0.50;;;;;;;;5067679;28;45333;-75
2022/04/07 12:01:59;;;;;;;;;1.75;0.50;;;;;;;;5074488;27;45476;-75
2022/04/07 12:04:29;;;;;;;;;0.00;0.00;;;;;;;;5074245;27;45250;-75
2022/04/07 12:06:55;;;;;;;;;0.75;0.00;;;;;;;;5074046;27;45777;-77
2022/04/07 12:09:20;;;;;;;;;0.00;0.00;;;;;;;;5071308;27;45410;-76
2022/04/07 12:11:46;;;;;;;;;1.25;0.00;;;;;;;;5061151;28;45579;-77
2022/04/07 12:14:14;;;;;;;;;2.00;1.00;;;;;;;;5065610;28;45628;-76
2022/04/07 12:16:43;;;;;;;;;2.75;2.00;;;;;;;;5060564;28;46300;-76
2022/04/07 12:19:09;;;;;;;;;3.00;1.00;;;;;;;;5066988;27;45507;-73
2022/04/07 12:21:52;;;;;;;;;1.00;1.00;;;;;;;;5063124;27;45331;-76
2022/04/07 12:24:17;;;;;;;;;1.00;1.00;;;;;;;;5074160;28;45376;-75
2022/04/07 12:26:43;;;;;;;;;1.00;1.00;;;;;;;;5074120;27;46133;-76
2022/04/07 12:29:19;;;;;;;;;3.00;1.25;;;;;;;;5073082;27;45374;-75
2022/04/07 12:31:44;;;;;;;;;1.25;0.00;;;;;;;;5073617;27;45385;-75
2022/04/07 12:34:12;;;;;;;;;2.00;2.00;;;;;;;;5073913;28;45492;-75
2022/04/07 12:36:38;;;;;;;;;1.00;1.00;;;;;;;;5073306;27;45685;-78
2022/04/07 12:39:08;;;;;;;;;0.00;0.00;;;;;;;;5063765;27;45641;-78
2022/04/07 12:41:38;;;;;;;;;2.75;0.00;;;;;;;;5065325;28;45407;-79
2022/04/07 12:44:04;;;;;;;;;2.25;0.25;;;;;;;;5064083;28;45266;-75
2022/04/07 12:46:48;;;;;;;;;1.00;0.00;;;;;;;;5069341;27;46064;-74
2022/04/07 12:49:13;;;;;;;;;0.75;0.00;;;;;;;;5058417;27;45375;-77
2022/04/07 12:51:40;;;;;;;;;1.75;1.00;;;;;;;;5067527;27;45440;-82
2022/04/07 12:54:06;;;;;;;;;1.50;0.00;;;;;;;;5062901;28;46531;-73
2022/04/07 12:56:32;;;;;;;;;0.25;0.25;;;;;;;;5067890;28;47186;-81
2022/04/07 12:59:01;;;;;;;;;2.75;1.00;;;;;;;;5075764;27;45762;-79
2022/04/07 13:01:27;;;;;;;;;1.25;0.00;;;;;;;;5059072;28;45397;-81
2022/04/07 13:03:54;;;;;;;;;4.00;2.00;;;;;;;;5072269;28;45276;-80
2022/04/07 13:06:19;;;;;;;;;0.50;0.00;;;;;;;;5069897;27;46345;-81
2022/04/07 13:08:44;;;;;;;;;2.33;1.00;;;;;;;;5063226;28;45396;-83
2022/04/07 13:11:11;;;;;;;;;3.33;0.00;;;;;;;;5070591;27;45632;-78
2022/04/07 13:13:37;;;;;;;;;1.33;1.00;;;;;;;;5070861;28;45468;-80
2022/04/07 13:16:02;;;;;;;;;1.67;1.33;;;;;;;;5080249;27;45498;-91
2022/04/07 13:18:27;;;;;;;;;1.00;1.00;;;;;;;;5068875;27;45404;-91
2022/04/07 13:20:52;;;;;;;;;1.67;1.33;;;;;;;;5069393;28;45426;-92
2022/04/07 13:23:18;;;;;;;;;1.25;0.50;;;;;;;;5071116;28;45406;-92
2022/04/07 13:25:43;;;;;;;;;0.00;0.00;;;;;;;;5070372;28;45420;-92
2022/04/07 13:28:08;;;;;;;;;1.75;0.00;;;;;;;;5083715;28;45303;-92
2022/04/07 13:30:33;;;;;;;;;1.00;1.00;;;;;;;;5072201;28;45366;-92
2022/04/07 13:32:58;;;;;;;;;0.00;0.00;;;;;;;;5091914;28;45300;-91
2022/04/07 13:35:24;;;;;;;;;3.00;1.00;;;;;;;;5092699;28;46469;-92
2022/04/07 13:37:51;;;;;;;;;1.50;1.00;;;;;;;;5096688;28;45314;-94
2022/04/07 13:40:16;;;;;;;;;0.75;0.75;;;;;;;;5089757;27;44843;-91
2022/04/07 13:42:41;;;;;;;;;1.67;0.00;;;;;;;;5096239;28;45242;-91
2022/04/07 13:45:09;;;;;;;;;0.33;0.33;;;;;;;;5090881;28;45780;-91
2022/04/07 13:47:34;;;;;;;;;3.00;0.67;;;;;;;;5082199;27;47041;-91
2022/04/07 13:49:59;;;;;;;;;1.33;1.33;;;;;;;;5082336;28;45445;-90
2022/04/07 13:52:25;;;;;;;;;1.33;1.33;;;;;;;;5073018;28;44878;-91
2022/04/07 13:54:50;;;;;;;;;1.00;1.00;;;;;;;;5070431;28;45461;-90
2022/04/07 13:57:15;;;;;;;;;1.00;1.00;;;;;;;;5074733;28;45489;-91
2022/04/07 13:59:41;;;;;;;;;1.00;1.00;;;;;;;;5076012;28;45412;-91
2022/04/07 14:02:06;;;;;;;;;1.33;0.67;;;;;;;;5082903;28;45373;-91
2022/04/07 14:04:31;;;;;;;;;2.00;1.67;;;;;;;;5078726;27;45349;-92
2022/04/07 14:07:00;;;;;;;;;1.00;1.00;;;;;;;;5082089;28;45452;-90
2022/04/07 14:09:25;;;;;;;;;3.00;3.00;;;;;;;;5080928;28;44897;-92
2022/04/07 14:11:51;;;;;;;;;0.00;0.00;;;;;;;;5072820;27;45495;-91
2022/04/07 14:14:16;;;;;;;;;1.00;1.00;;;;;;;;5074657;28;46136;-89
2022/04/07 14:16:41;;;;;;;;;4.00;4.00;;;;;;;;5085908;28;45150;-91
2022/04/07 14:19:06;;;;;;;;;5.00;3.33;;;;;;;;5066661;27;45273;-90
2022/04/07 14:21:32;;;;;;;;;1.67;0.67;;;;;;;;5064431;28;45307;-90
2022/04/07 14:23:57;;;;;;;;;1.00;1.00;;;;;;;;5075269;28;46050;-91
2022/04/07 14:26:23;;;;;;;;;0.00;0.00;;;;;;;;5076809;27;45299;-91
2022/04/07 14:28:49;;;;;;;;;1.00;1.00;;;;;;;;5076050;27;45612;-90
2022/04/07 14:31:14;;;;;;;;;2.67;1.67;;;;;;;;5061467;27;45272;-90
2022/04/07 14:33:39;;;;;;;;;3.67;0.67;;;;;;;;5078236;27;45324;-90
2022/04/07 14:36:07;;;;;;;;;0.67;0.67;;;;;;;;5073136;27;45554;-92
2022/04/07 14:38:32;;;;;;;;;1.00;1.00;;;;;;;;5076887;28;45377;-91
2022/04/07 14:40:58;;;;;;;;;4.00;2.00;;;;;;;;5083255;27;45496;-90